Time;durP1;ratioP1;P1;durP2;ratioP2;P2;SDS_P1;SDS_P2;PMS_P1;PMS_P2;Temp;Humidity;BMP_temperature;BMP_pressure;BME280_temperature;BME280_humidity;BME280_pressure;Samples;Min_cycle;Max_cycle;Signal;HPM_P1;HPM_P2
2023/03/20 00:01:13;;;;;;;0.40;0.40;;;7.10;99.90;;;;;;4962493;28;20043;-83
2023/03/20 00:03:40;;;;;;;1.30;1.20;;;7.10;99.90;;;;;;4948880;28;20043;-83
2023/03/20 00:06:11;;;;;;;;;;;7.10;99.90;;;;;;4968322;28;20042;-84
2023/03/20 00:08:38;;;;;;;0.50;0.50;;;7.10;99.90;;;;;;4960279;28;19918;-84
2023/03/20 00:11:04;;;;;;;0.50;0.50;;;7.10;99.90;;;;;;4938298;28;20055;-83
2023/03/20 00:13:31;;;;;;;0.50;0.50;;;7.10;99.90;;;;;;4968857;28;20046;-83
2023/03/20 00:15:56;;;;;;;3.08;1.13;;;7.10;99.90;;;;;;4969076;28;20107;-84
2023/03/20 00:18:23;;;;;;;0.68;0.68;;;7.10;99.90;;;;;;4969407;28;20051;-84
2023/03/20 00:20:50;;;;;;;0.50;0.50;;;7.10;99.90;;;;;;4971822;28;20046;-84
2023/03/20 00:23:16;;;;;;;1.10;1.10;;;7.10;99.90;;;;;;4936076;28;20061;-85
2023/03/20 00:25:46;;;;;;;0.50;0.50;;;7.10;99.90;;;;;;4967260;28;20081;-84
2023/03/20 00:28:39;;;;;;;0.68;0.68;;;7.10;99.90;;;;;;4965512;28;20041;-83
2023/03/20 00:31:26;;;;;;;0.68;0.68;;;7.00;99.90;;;;;;4955573;28;20078;-85
2023/03/20 00:33:54;;;;;;;1.40;1.20;;;7.00;99.90;;;;;;4988565;28;20143;-84
2023/03/20 00:36:20;;;;;;;0.60;0.60;;;7.00;99.90;;;;;;4967796;28;20050;-85
2023/03/20 00:38:46;;;;;;;0.50;0.50;;;7.00;99.90;;;;;;4972475;28;20133;-84
2023/03/20 00:41:23;;;;;;;1.00;1.00;;;7.00;99.90;;;;;;4969496;28;20400;-83
2023/03/20 00:43:57;;;;;;;0.50;0.50;;;7.00;99.90;;;;;;4966736;28;20047;-84
2023/03/20 00:46:23;;;;;;;0.63;0.63;;;7.00;99.90;;;;;;4968047;28;20041;-84
2023/03/20 00:48:49;;;;;;;0.73;0.70;;;6.90;99.90;;;;;;4960908;28;20043;-83
2023/03/20 00:51:15;;;;;;;0.75;0.75;;;6.90;99.90;;;;;;4962324;28;20081;-84
2023/03/20 00:53:41;;;;;;;0.50;0.50;;;6.90;99.90;;;;;;4964198;28;20492;-84
2023/03/20 00:56:27;;;;;;;1.13;1.13;;;6.90;99.90;;;;;;4950627;28;20108;-83
2023/03/20 00:58:53;;;;;;;0.60;0.60;;;6.90;99.90;;;;;;4965748;28;20488;-84
2023/03/20 01:01:19;;;;;;;0.70;0.70;;;6.90;99.90;;;;;;4949873;28;20135;-85
2023/03/20 01:03:45;;;;;;;0.68;0.68;;;7.10;99.90;;;;;;5027136;28;20077;-84
2023/03/20 01:06:12;;;;;;;;;;;6.90;99.90;;;;;;4962738;28;20407;-83
2023/03/20 01:08:37;;;;;;;0.60;0.60;;;6.90;99.90;;;;;;4949122;28;19925;-83
2023/03/20 01:11:03;;;;;;;0.55;0.55;;;6.90;99.90;;;;;;4962856;28;20038;-84
2023/03/20 01:13:31;;;;;;;0.45;0.45;;;6.90;99.90;;;;;;4948838;28;20129;-85
2023/03/20 01:15:58;;;;;;;0.65;0.65;;;6.90;99.90;;;;;;4963200;28;20055;-84
2023/03/20 01:18:25;;;;;;;0.43;0.43;;;6.90;99.90;;;;;;4962301;28;20051;-84
2023/03/20 01:20:51;;;;;;;0.50;0.50;;;6.90;99.90;;;;;;4948206;28;20047;-85
2023/03/20 01:23:18;;;;;;;0.45;0.45;;;6.80;99.90;;;;;;4961956;28;20155;-84
2023/03/20 01:25:44;;;;;;;0.77;0.77;;;6.80;99.90;;;;;;4946099;28;20047;-84
2023/03/20 01:28:18;;;;;;;1.98;1.15;;;6.90;99.90;;;;;;4964450;28;20035;-83
2023/03/20 01:30:44;;;;;;;0.55;0.55;;;6.80;99.90;;;;;;4963931;28;20077;-84
2023/03/20 01:33:22;;;;;;;0.60;0.60;;;6.80;99.90;;;;;;4966335;28;20082;-83
2023/03/20 01:35:50;;;;;;;0.47;0.47;;;6.90;99.90;;;;;;4963934;28;20133;-84
2023/03/20 01:38:26;;;;;;;1.33;1.33;;;6.90;99.90;;;;;;4963500;28;20100;-85
2023/03/20 01:40:57;;;;;;;0.60;0.60;;;7.00;99.90;;;;;;4962671;28;20059;-85
2023/03/20 01:43:25;;;;;;;0.60;0.60;;;6.90;99.90;;;;;;4963772;28;20051;-84
2023/03/20 01:46:16;;;;;;;1.55;1.55;;;6.80;99.90;;;;;;4949311;28;20043;-85
2023/03/20 01:48:51;;;;;;;0.40;0.40;;;6.90;99.90;;;;;;4962227;28;20051;-84
2023/03/20 01:51:18;;;;;;;0.57;0.57;;;6.90;99.90;;;;;;4962096;28;20039;-83
2023/03/20 01:53:47;;;;;;;0.40;0.40;;;6.90;99.90;;;;;;4963652;28;20373;-83
2023/03/20 01:56:16;;;;;;;0.63;0.63;;;6.90;99.90;;;;;;4962920;28;20050;-84
2023/03/20 01:58:47;;;;;;;0.70;0.70;;;6.80;99.90;;;;;;4961489;28;20097;-83
2023/03/20 02:01:14;;;;;;;0.70;0.70;;;6.80;99.90;;;;;;4962654;28;20085;-82
2023/03/20 02:03:44;;;;;;;1.38;0.73;;;6.90;99.90;;;;;;4942411;28;20052;-84
2023/03/20 02:06:10;;;;;;;0.90;0.90;;;6.90;99.90;;;;;;4960765;28;20050;-81
2023/03/20 02:08:49;;;;;;;0.82;0.82;;;6.90;99.90;;;;;;4963056;28;20074;-82
2023/03/20 02:11:17;;;;;;;1.25;1.25;;;7.00;99.90;;;;;;4983466;28;20054;-84
2023/03/20 02:13:45;;;;;;;0.40;0.40;;;6.90;99.90;;;;;;4964831;28;20431;-83
2023/03/20 02:16:12;;;;;;;0.80;0.80;;;6.90;99.90;;;;;;4947021;28;20388;-82
2023/03/20 02:18:41;;;;;;;0.60;0.60;;;6.90;99.90;;;;;;4964250;28;20047;-83
2023/03/20 02:21:34;;;;;;;0.80;0.80;;;6.90;99.90;;;;;;4961691;28;20125;-84
2023/03/20 02:24:38;;;;;;;0.50;0.50;;;7.00;99.90;;;;;;4960813;28;20055;-82
2023/03/20 02:27:29;;;;;;;0.50;0.50;;;7.00;99.90;;;;;;4946696;28;20039;-84
2023/03/20 02:30:38;;;;;;;0.65;0.65;;;7.00;99.90;;;;;;4983620;28;20052;-84
2023/03/20 02:33:29;;;;;;;0.50;0.50;;;7.00;99.90;;;;;;4970099;28;20069;-83
2023/03/20 02:36:08;;;;;;;1.52;0.93;;;7.00;99.90;;;;;;4969598;28;20080;-83
2023/03/20 02:38:59;;;;;;;0.80;0.80;;;7.00;99.90;;;;;;4970096;28;20130;-83
2023/03/20 02:41:43;;;;;;;0.55;0.55;;;7.00;99.90;;;;;;4968825;28;20395;-82
2023/03/20 02:44:16;;;;;;;0.60;0.60;;;7.00;99.90;;;;;;4972743;28;20077;-81
2023/03/20 02:46:56;;;;;;;0.63;0.63;;;7.10;99.90;;;;;;4971827;28;20047;-84
2023/03/20 02:49:56;;;;;;;2.22;1.33;;;7.10;99.90;;;;;;4974449;28;20039;-83
2023/03/20 02:52:36;;;;;;;0.82;0.70;;;7.10;99.90;;;;;;4967312;28;20042;-81
2023/03/20 02:55:16;;;;;;;1.15;0.75;;;7.10;99.90;;;;;;4970818;28;20046;-83
2023/03/20 02:57:57;;;;;;;0.40;0.40;;;7.10;99.90;;;;;;4969277;28;20162;-83
2023/03/20 03:00:39;;;;;;;0.75;0.75;;;7.10;99.90;;;;;;4968785;28;20124;-84
2023/03/20 03:03:13;;;;;;;2.40;2.28;;;7.10;99.90;;;;;;4969651;28;20088;-84
2023/03/20 03:05:45;;;;;;;0.50;0.50;;;7.10;99.90;;;;;;4964029;28;20128;-84
2023/03/20 03:08:13;;;;;;;0.60;0.60;;;7.10;99.90;;;;;;4964267;28;20054;-83
2023/03/20 03:10:54;;;;;;;0.50;0.50;;;7.10;99.90;;;;;;4970089;28;20133;-82
2023/03/20 03:13:25;;;;;;;1.13;1.10;;;7.20;99.90;;;;;;4967168;28;20051;-82
2023/03/20 03:15:56;;;;;;;0.60;0.60;;;7.10;99.90;;;;;;4962006;28;20104;-83
2023/03/20 03:18:24;;;;;;;0.50;0.50;;;7.10;99.90;;;;;;4971560;28;20524;-83
2023/03/20 03:20:55;;;;;;;1.02;1.02;;;7.10;99.90;;;;;;4965851;28;20105;-82
2023/03/20 03:23:31;;;;;;;0.65;0.65;;;7.20;99.90;;;;;;4968353;28;20050;-82
2023/03/20 03:26:02;;;;;;;0.52;0.52;;;7.20;99.90;;;;;;4970047;28;20035;-83
2023/03/20 03:28:39;;;;;;;0.50;0.50;;;7.20;99.90;;;;;;4966386;28;20473;-83
2023/03/20 03:31:10;;;;;;;1.70;1.60;;;7.20;99.90;;;;;;4967457;28;20415;-83
2023/03/20 03:33:42;;;;;;;1.00;0.85;;;7.20;99.90;;;;;;4972095;28;20054;-82
2023/03/20 03:36:11;;;;;;;0.85;0.85;;;7.20;99.90;;;;;;4969063;28;20504;-82
2023/03/20 03:38:51;;;;;;;0.60;0.60;;;7.20;99.90;;;;;;4968373;28;20042;-82
2023/03/20 03:41:35;;;;;;;0.70;0.70;;;7.20;99.90;;;;;;4964464;28;20425;-82
2023/03/20 03:44:10;;;;;;;0.60;0.60;;;7.20;99.90;;;;;;4966143;28;20051;-83
2023/03/20 03:46:52;;;;;;;0.70;0.70;;;7.20;99.90;;;;;;4964827;28;20039;-83
2023/03/20 03:49:29;;;;;;;0.52;0.52;;;7.20;99.90;;;;;;4965703;28;20074;-84
2023/03/20 03:52:00;;;;;;;0.77;0.73;;;7.30;99.90;;;;;;4967867;28;20141;-84
2023/03/20 03:54:42;;;;;;;0.47;0.47;;;7.20;99.90;;;;;;4969695;28;20153;-83
2023/03/20 03:57:11;;;;;;;0.50;0.50;;;7.30;99.90;;;;;;4963291;28;20388;-83
2023/03/20 03:59:40;;;;;;;0.73;0.73;;;7.30;99.90;;;;;;4961962;28;20120;-84
2023/03/20 04:02:08;;;;;;;0.65;0.65;;;7.20;99.90;;;;;;4965397;28;20382;-84
2023/03/20 04:04:37;;;;;;;1.15;1.05;;;7.30;99.90;;;;;;4966134;28;20043;-83
2023/03/20 04:07:03;;;;;;;0.70;0.70;;;7.30;99.90;;;;;;4950020;28;20125;-84
2023/03/20 04:09:29;;;;;;;0.40;0.40;;;7.30;99.90;;;;;;4954656;28;20118;-84
2023/03/20 04:11:55;;;;;;;1.17;1.02;;;7.30;99.90;;;;;;4965683;28;20041;-82
2023/03/20 04:14:21;;;;;;;1.00;1.00;;;7.30;99.90;;;;;;4964982;28;20067;-84
2023/03/20 04:16:46;;;;;;;0.55;0.55;;;7.30;99.90;;;;;;4966084;28;20043;-83
2023/03/20 04:19:12;;;;;;;0.65;0.65;;;7.30;99.90;;;;;;4961960;28;20520;-83
2023/03/20 04:21:38;;;;;;;0.93;0.80;;;7.30;99.90;;;;;;4951184;28;20130;-82
2023/03/20 04:24:04;;;;;;;0.73;0.73;;;7.40;99.90;;;;;;4951404;28;20126;-84
2023/03/20 04:26:29;;;;;;;0.50;0.50;;;7.30;99.90;;;;;;4967935;28;20045;-84
2023/03/20 04:28:55;;;;;;;0.98;0.98;;;7.30;99.90;;;;;;5029333;28;20047;-81
2023/03/20 04:31:22;;;;;;;0.60;0.60;;;7.30;99.90;;;;;;4963111;28;20075;-82
2023/03/20 04:33:47;;;;;;;0.80;0.80;;;7.30;99.90;;;;;;4968865;28;20152;-82
2023/03/20 04:36:13;;;;;;;0.82;0.82;;;7.30;99.90;;;;;;4966405;28;20049;-82
2023/03/20 04:38:40;;;;;;;0.77;0.77;;;7.30;99.90;;;;;;4949117;28;20059;-84
2023/03/20 04:41:06;;;;;;;2.83;1.58;;;7.40;99.90;;;;;;4965621;28;20127;-84
2023/03/20 04:43:33;;;;;;;0.50;0.50;;;7.40;99.90;;;;;;4965037;28;20055;-84
2023/03/20 04:46:00;;;;;;;0.52;0.52;;;7.40;99.90;;;;;;4962644;28;20031;-83
2023/03/20 04:48:26;;;;;;;1.85;1.25;;;7.40;99.90;;;;;;4961105;28;20035;-83
2023/03/20 04:50:53;;;;;;;0.47;0.47;;;7.30;99.90;;;;;;4962691;28;20149;-83
2023/03/20 04:53:19;;;;;;;0.50;0.50;;;7.40;99.90;;;;;;4962140;28;20700;-83
2023/03/20 04:55:45;;;;;;;0.75;0.75;;;7.30;99.90;;;;;;4966778;28;20042;-83
2023/03/20 04:58:11;;;;;;;0.50;0.50;;;7.30;99.90;;;;;;4969187;28;20058;-84
2023/03/20 05:00:37;;;;;;;0.90;0.90;;;7.40;99.90;;;;;;4964019;28;20126;-85
2023/03/20 05:03:03;;;;;;;;;;;7.40;99.90;;;;;;4967866;28;20165;-84
2023/03/20 05:05:29;;;;;;;0.40;0.40;;;7.30;99.90;;;;;;4967041;28;19918;-85
2023/03/20 05:07:56;;;;;;;1.45;1.35;;;7.40;99.90;;;;;;4967117;28;20059;-84
2023/03/20 05:10:21;;;;;;;0.47;0.47;;;7.40;99.90;;;;;;4966687;28;20054;-84
2023/03/20 05:12:47;;;;;;;0.75;0.65;;;7.40;99.90;;;;;;4930659;29;20051;-85
2023/03/20 05:15:13;;;;;;;0.40;0.40;;;7.40;99.90;;;;;;4946874;28;20054;-82
2023/03/20 05:17:39;;;;;;;2.05;1.95;;;7.40;99.90;;;;;;4966322;28;20038;-83
2023/03/20 05:20:05;;;;;;;0.30;0.30;;;7.50;99.90;;;;;;4965472;28;20399;-83
2023/03/20 05:22:31;;;;;;;0.80;0.80;;;7.40;99.90;;;;;;4967121;28;20050;-83
2023/03/20 05:24:57;;;;;;;0.77;0.77;;;7.40;99.90;;;;;;4963695;28;20035;-83
2023/03/20 05:27:22;;;;;;;0.60;0.60;;;7.40;99.90;;;;;;4948722;28;20038;-82
2023/03/20 05:29:48;;;;;;;0.30;0.30;;;7.50;99.90;;;;;;4964127;28;20065;-82
2023/03/20 05:32:14;;;;;;;0.70;0.70;;;7.50;99.90;;;;;;4963098;28;20037;-82
2023/03/20 05:34:46;;;;;;;0.80;0.80;;;7.50;99.90;;;;;;4947594;28;20057;-84
2023/03/20 05:37:12;;;;;;;0.40;0.40;;;7.50;99.90;;;;;;4946340;28;20051;-84
2023/03/20 05:39:37;;;;;;;0.63;0.63;;;7.50;99.90;;;;;;4963077;28;20046;-84
2023/03/20 05:42:03;;;;;;;0.50;0.50;;;7.50;99.90;;;;;;4944130;28;20117;-85
2023/03/20 05:44:29;;;;;;;0.45;0.45;;;7.40;99.90;;;;;;4962735;28;20047;-84
2023/03/20 05:46:55;;;;;;;1.17;1.00;;;7.50;99.90;;;;;;4964085;28;20518;-83
2023/03/20 05:49:21;;;;;;;0.47;0.47;;;7.40;99.90;;;;;;4963649;28;20078;-83
2023/03/20 05:51:46;;;;;;;1.17;1.17;;;7.50;99.90;;;;;;4945302;28;20051;-83
2023/03/20 05:54:12;;;;;;;0.77;0.77;;;7.50;99.90;;;;;;4962037;28;20544;-85
2023/03/20 05:56:38;;;;;;;0.32;0.32;;;7.50;99.90;;;;;;4964363;28;20042;-83
2023/03/20 05:59:03;;;;;;;0.52;0.52;;;7.40;99.90;;;;;;4963818;28;20511;-83
2023/03/20 06:01:29;;;;;;;0.50;0.50;;;7.40;99.90;;;;;;4963118;28;20043;-84
2023/03/20 06:03:55;;;;;;;1.40;1.40;;;7.40;99.90;;;;;;4960796;28;20059;-84
2023/03/20 06:06:20;;;;;;;0.60;0.60;;;7.50;99.90;;;;;;4965702;28;20046;-84
2023/03/20 06:08:46;;;;;;;0.50;0.50;;;7.50;99.90;;;;;;4949385;28;20047;-83
2023/03/20 06:11:12;;;;;;;0.50;0.50;;;7.40;99.90;;;;;;4962534;28;20458;-84
2023/03/20 06:13:38;;;;;;;0.65;0.65;;;7.40;99.90;;;;;;4961221;28;20047;-81
2023/03/20 06:16:04;;;;;;;0.60;0.60;;;7.40;99.90;;;;;;4964120;28;20078;-83
2023/03/20 06:18:30;;;;;;;0.60;0.60;;;7.50;99.90;;;;;;4931406;28;20054;-82
2023/03/20 06:20:56;;;;;;;1.00;1.00;;;7.50;99.90;;;;;;4936069;28;20042;-85
2023/03/20 06:23:22;;;;;;;2.95;1.00;;;7.50;99.90;;;;;;4964485;28;20066;-84
2023/03/20 06:25:48;;;;;;;1.50;1.42;;;7.50;99.90;;;;;;4957258;28;20035;-84
2023/03/20 06:28:15;;;;;;;0.50;0.50;;;7.50;99.90;;;;;;4944038;28;20050;-83
2023/03/20 06:30:42;;;;;;;0.40;0.40;;;7.50;99.90;;;;;;4961037;28;20117;-83
2023/03/20 06:33:08;;;;;;;1.70;1.60;;;7.50;99.90;;;;;;4945331;28;20432;-82
2023/03/20 06:35:34;;;;;;;0.77;0.50;;;7.50;99.90;;;;;;4961124;28;20089;-83
2023/03/20 06:38:00;;;;;;;0.45;0.45;;;7.60;99.90;;;;;;4961832;28;20103;-83
2023/03/20 06:40:27;;;;;;;0.80;0.80;;;7.60;99.90;;;;;;4962772;28;20147;-83
2023/03/20 06:42:53;;;;;;;0.40;0.40;;;7.60;99.90;;;;;;4961543;28;20035;-82
2023/03/20 06:45:20;;;;;;;0.60;0.60;;;7.60;99.90;;;;;;4958674;28;20046;-82
2023/03/20 06:47:46;;;;;;;0.40;0.40;;;7.60;99.90;;;;;;4964282;28;20392;-82
2023/03/20 06:50:12;;;;;;;;;;;7.70;99.90;;;;;;4942717;28;20126;-83
2023/03/20 06:52:38;;;;;;;1.70;1.60;;;7.70;99.90;;;;;;4948556;28;20340;-84
2023/03/20 06:55:05;;;;;;;1.30;1.27;;;7.70;99.90;;;;;;4959156;28;20109;-84
2023/03/20 06:57:31;;;;;;;5.82;0.73;;;7.70;99.90;;;;;;4940700;28;20089;-85
2023/03/20 06:59:57;;;;;;;0.57;0.57;;;7.70;99.90;;;;;;4973038;28;20043;-84
2023/03/20 07:02:25;;;;;;;1.02;1.02;;;7.70;99.90;;;;;;5027689;28;20100;-83
2023/03/20 07:04:51;;;;;;;0.90;0.90;;;7.80;99.90;;;;;;4963068;28;20070;-83
2023/03/20 07:07:17;;;;;;;0.75;0.75;;;7.80;99.90;;;;;;4965232;28;20081;-85
2023/03/20 07:09:44;;;;;;;0.38;0.38;;;7.80;99.90;;;;;;4968208;28;20679;-83
2023/03/20 07:12:14;;;;;;;0.60;0.60;;;7.90;99.90;;;;;;4962356;28;20499;-83
2023/03/20 07:14:41;;;;;;;1.63;0.90;;;7.90;99.90;;;;;;4955769;28;20134;-83
2023/03/20 07:17:08;;;;;;;0.45;0.45;;;8.00;99.90;;;;;;4966822;28;20060;-84
2023/03/20 07:19:35;;;;;;;0.75;0.75;;;8.00;99.90;;;;;;4964775;28;20055;-84
2023/03/20 07:22:03;;;;;;;0.38;0.38;;;8.10;99.90;;;;;;4966792;28;20051;-83
2023/03/20 07:24:30;;;;;;;0.55;0.55;;;8.10;99.90;;;;;;4968561;28;20054;-83
2023/03/20 07:26:56;;;;;;;0.52;0.52;;;8.20;99.90;;;;;;4965378;28;20039;-84
2023/03/20 07:29:21;;;;;;;0.47;0.47;;;8.20;99.90;;;;;;4964338;28;20479;-83
2023/03/20 07:31:47;;;;;;;2.10;1.92;;;8.30;99.90;;;;;;4965514;28;20133;-84
2023/03/20 07:34:13;;;;;;;1.30;1.23;;;8.40;99.90;;;;;;4965054;28;20046;-83
2023/03/20 07:36:40;;;;;;;1.35;1.25;;;8.40;99.90;;;;;;4967162;28;20042;-82
2023/03/20 07:39:07;;;;;;;0.73;0.73;;;8.50;99.90;;;;;;4966376;28;20049;-82
2023/03/20 07:41:32;;;;;;;;;;;8.50;99.90;;;;;;4962178;28;21845;-81
2023/03/20 07:43:58;;;;;;;2.90;1.35;;;8.60;99.90;;;;;;4962800;28;20012;-83
2023/03/20 07:46:26;;;;;;;0.80;0.80;;;8.60;99.90;;;;;;4934091;28;20058;-85
2023/03/20 07:48:52;;;;;;;1.95;1.85;;;8.60;99.90;;;;;;4968356;28;20751;-82
2023/03/20 07:51:18;;;;;;;0.50;0.50;;;8.60;99.90;;;;;;4974938;28;20039;-81
2023/03/20 07:53:44;;;;;;;0.50;0.50;;;8.60;99.90;;;;;;4963741;28;20055;-80
2023/03/20 07:56:09;;;;;;;1.83;1.73;;;8.50;99.90;;;;;;4967093;28;20039;-82
2023/03/20 07:58:35;;;;;;;0.90;0.90;;;8.60;99.90;;;;;;4963774;28;20132;-82
2023/03/20 08:01:02;;;;;;;0.85;0.85;;;8.60;99.90;;;;;;4962577;28;20464;-82
2023/03/20 08:03:28;;;;;;;2.50;2.30;;;8.70;99.90;;;;;;4962866;28;20400;-82
2023/03/20 08:05:56;;;;;;;0.52;0.52;;;8.80;99.90;;;;;;4965807;28;20051;-81
2023/03/20 08:08:21;;;;;;;1.10;1.10;;;8.90;99.90;;;;;;4948950;28;20511;-81
2023/03/20 08:10:47;;;;;;;0.70;0.70;;;8.90;99.90;;;;;;4976903;28;20040;-82
2023/03/20 08:13:13;;;;;;;1.52;1.42;;;8.90;99.90;;;;;;4959654;28;20358;-81
2023/03/20 08:15:39;;;;;;;2.90;0.88;;;9.00;99.90;;;;;;4963943;28;20108;-82
2023/03/20 08:18:05;;;;;;;0.50;0.50;;;9.00;99.90;;;;;;4956959;28;20050;-81
2023/03/20 08:20:31;;;;;;;1.02;0.93;;;8.90;99.90;;;;;;4948759;28;20103;-82
2023/03/20 08:22:56;;;;;;;1.48;1.35;;;8.90;99.90;;;;;;4963234;28;20093;-82
2023/03/20 08:25:22;;;;;;;0.40;0.40;;;8.90;99.90;;;;;;4961733;28;20282;-81
2023/03/20 08:27:48;;;;;;;0.70;0.70;;;8.80;99.90;;;;;;4938018;28;20047;-82
2023/03/20 08:30:14;;;;;;;0.73;0.73;;;8.80;99.90;;;;;;4962390;28;20042;-82
2023/03/20 08:32:40;;;;;;;0.75;0.75;;;8.80;99.90;;;;;;4953377;28;20134;-82
2023/03/20 08:35:07;;;;;;;0.90;0.90;;;8.80;99.90;;;;;;4964134;28;20114;-81
2023/03/20 08:37:34;;;;;;;3.30;1.73;;;8.80;99.90;;;;;;4964055;28;20396;-81
2023/03/20 08:40:00;;;;;;;1.63;1.52;;;8.80;99.90;;;;;;4961053;28;20114;-82
2023/03/20 08:42:26;;;;;;;0.57;0.57;;;8.80;99.90;;;;;;4960120;28;20061;-80
2023/03/20 08:44:51;;;;;;;1.23;1.15;;;8.80;99.90;;;;;;4961768;28;20044;-83
2023/03/20 08:47:18;;;;;;;1.60;1.60;;;8.80;99.90;;;;;;4961520;28;20400;-84
2023/03/20 08:49:44;;;;;;;0.70;0.70;;;8.90;99.90;;;;;;4956914;28;20121;-82
2023/03/20 08:52:10;;;;;;;0.80;0.80;;;8.90;99.90;;;;;;4968536;28;20130;-84
2023/03/20 08:54:41;;;;;;;0.70;0.70;;;9.00;99.90;;;;;;4962444;28;20386;-84
2023/03/20 08:57:07;;;;;;;1.85;1.30;;;9.00;99.90;;;;;;4963690;28;20070;-81
2023/03/20 08:59:32;;;;;;;1.38;1.27;;;9.20;99.90;;;;;;4962730;28;20050;-83
2023/03/20 09:01:58;;;;;;;1.33;1.23;;;9.30;99.90;;;;;;4966952;28;20039;-84
2023/03/20 09:04:24;;;;;;;0.60;0.60;;;9.40;99.90;;;;;;4963296;28;20050;-83
2023/03/20 09:06:50;;;;;;;0.47;0.47;;;9.60;99.90;;;;;;4962908;28;20050;-81
2023/03/20 09:09:18;;;;;;;1.65;0.85;;;9.80;99.90;;;;;;4974531;28;20440;-84
2023/03/20 09:11:45;;;;;;;0.30;0.30;;;9.80;99.90;;;;;;4947729;28;20440;-82
2023/03/20 09:14:10;;;;;;;;;;;9.80;99.90;;;;;;4966072;28;20551;-82
2023/03/20 09:16:36;;;;;;;0.77;0.77;;;9.90;99.90;;;;;;4968085;28;19929;-84
2023/03/20 09:19:02;;;;;;;1.02;1.02;;;9.90;99.90;;;;;;4968266;28;20078;-84
2023/03/20 09:21:28;;;;;;;0.60;0.60;;;9.90;99.90;;;;;;4948518;28;20042;-85
2023/03/20 09:23:53;;;;;;;1.52;1.45;;;10.00;99.90;;;;;;5033736;28;20043;-83
2023/03/20 09:26:19;;;;;;;0.85;0.50;;;10.10;99.90;;;;;;4964545;28;20570;-83
2023/03/20 09:28:45;;;;;;;1.13;1.02;;;10.20;99.90;;;;;;4960268;28;20054;-81
2023/03/20 09:31:11;;;;;;;0.50;0.50;;;10.30;99.90;;;;;;4946010;28;20096;-80
2023/03/20 09:33:37;;;;;;;1.55;0.93;;;10.30;99.90;;;;;;4955918;28;20078;-81
2023/03/20 09:36:03;;;;;;;0.63;0.63;;;10.30;99.90;;;;;;4937142;28;20108;-82
2023/03/20 09:38:29;;;;;;;0.30;0.30;;;10.20;99.90;;;;;;4955228;28;20043;-82
2023/03/20 09:41:04;;;;;;;0.82;0.82;;;10.20;99.90;;;;;;4959302;28;20053;-81
2023/03/20 09:43:45;;;;;;;1.02;1.02;;;10.20;99.90;;;;;;4953096;28;20047;-82
2023/03/20 09:46:48;;;;;;;0.50;0.50;;;10.10;99.90;;;;;;4956156;28;20047;-80
2023/03/20 09:49:41;;;;;;;1.23;1.13;;;10.20;99.90;;;;;;4961285;28;20505;-81
2023/03/20 09:52:30;;;;;;;1.27;1.17;;;10.30;99.90;;;;;;4941426;28;20097;-83
2023/03/20 09:55:12;;;;;;;0.70;0.70;;;10.40;99.90;;;;;;4958323;28;20074;-82
2023/03/20 09:57:42;;;;;;;1.00;0.90;;;10.40;99.90;;;;;;4962883;28;20055;-80
2023/03/20 10:00:16;;;;;;;0.47;0.47;;;10.50;99.90;;;;;;4959263;28;20031;-82
2023/03/20 10:02:59;;;;;;;0.70;0.70;;;10.60;99.90;;;;;;4961810;28;20138;-82
2023/03/20 10:05:28;;;;;;;0.90;0.90;;;10.60;99.90;;;;;;4960639;28;20039;-83
2023/03/20 10:07:56;;;;;;;1.30;1.30;;;10.60;99.90;;;;;;4945586;28;20049;-83
2023/03/20 10:10:49;;;;;;;0.93;0.93;;;10.70;99.90;;;;;;4960234;28;20648;-81
2023/03/20 10:13:18;;;;;;;1.08;1.08;;;10.50;99.90;;;;;;4960186;28;20047;-81
2023/03/20 10:16:13;;;;;;;1.85;1.75;;;11.00;99.90;;;;;;4960024;28;20103;-81
2023/03/20 10:18:50;;;;;;;0.98;0.98;;;10.90;99.90;;;;;;4980935;28;20076;-82
2023/03/20 10:21:22;;;;;;;0.50;0.50;;;10.90;99.90;;;;;;4960879;28;20038;-82
2023/03/20 10:23:53;;;;;;;0.90;0.90;;;10.90;99.90;;;;;;4960509;28;20061;-81
2023/03/20 10:26:22;;;;;;;0.77;0.77;;;10.80;99.90;;;;;;4960234;28;21978;-81
2023/03/20 10:28:58;;;;;;;2.08;0.90;;;10.90;99.90;;;;;;4959963;28;20054;-82
2023/03/20 10:31:49;;;;;;;0.57;0.57;;;10.90;99.90;;;;;;4965098;28;20049;-81
2023/03/20 10:34:21;;;;;;;0.90;0.90;;;10.80;99.90;;;;;;4960677;28;20055;-82
2023/03/20 10:36:55;;;;;;;0.88;0.88;;;10.70;99.90;;;;;;4956898;28;20511;-81
2023/03/20 10:39:45;;;;;;;0.80;0.80;;;10.60;99.90;;;;;;4943010;28;20427;-82
2023/03/20 10:42:19;;;;;;;2.55;0.90;;;10.60;99.90;;;;;;4957671;28;20054;-82
2023/03/20 10:44:53;;;;;;;1.50;1.15;;;10.60;99.90;;;;;;4954354;28;20145;-83
2023/03/20 10:47:23;;;;;;;0.77;0.77;;;10.70;99.90;;;;;;4960168;28;20353;-81
2023/03/20 10:50:04;;;;;;;0.80;0.80;;;10.80;99.90;;;;;;4952906;28;20051;-81
2023/03/20 10:52:34;;;;;;;1.33;1.23;;;10.90;99.90;;;;;;4960844;28;20053;-83
2023/03/20 10:55:15;;;;;;;1.23;0.70;;;10.90;99.90;;;;;;4958482;28;20411;-83
2023/03/20 10:57:47;;;;;;;1.65;0.95;;;11.00;99.90;;;;;;4959951;28;20058;-80
2023/03/20 11:00:22;;;;;;;0.32;0.32;;;11.10;99.90;;;;;;4960212;28;20093;-81
2023/03/20 11:02:48;;;;;;;0.63;0.63;;;11.10;99.90;;;;;;4960513;28;20078;-80
2023/03/20 11:05:20;;;;;;;;;;;11.00;99.90;;;;;;4930533;28;20054;-82
2023/03/20 11:07:49;;;;;;;0.88;0.82;;;11.00;99.90;;;;;;4961212;28;20045;-81
2023/03/20 11:10:15;;;;;;;0.63;0.63;;;10.80;99.90;;;;;;4965432;28;20435;-82
2023/03/20 11:12:49;;;;;;;1.63;0.77;;;10.70;99.90;;;;;;4964390;28;20100;-82
2023/03/20 11:15:25;;;;;;;3.40;2.05;;;10.60;99.90;;;;;;4953924;28;20047;-82
2023/03/20 11:17:56;;;;;;;2.65;2.38;;;10.60;99.90;;;;;;4967571;28;20062;-82
2023/03/20 11:20:24;;;;;;;0.68;0.68;;;10.70;99.90;;;;;;4965995;28;20035;-82
2023/03/20 11:22:56;;;;;;;0.60;0.60;;;10.70;99.90;;;;;;4962689;28;20047;-82
2023/03/20 11:25:45;;;;;;;3.50;2.35;;;10.70;99.90;;;;;;4966207;28;20045;-82
2023/03/20 11:28:35;;;;;;;1.02;1.02;;;10.70;99.90;;;;;;4953083;28;20054;-83
2023/03/20 11:31:32;;;;;;;1.95;1.85;;;10.60;99.90;;;;;;4971347;28;20051;-81
2023/03/20 11:34:13;;;;;;;1.05;0.73;;;10.60;99.90;;;;;;4949865;28;20066;-81
2023/03/20 11:36:40;;;;;;;0.85;0.85;;;10.60;99.90;;;;;;4952732;28;20054;-82
2023/03/20 11:39:22;;;;;;;1.48;1.23;;;10.60;99.90;;;;;;4966113;28;20038;-81
2023/03/20 11:41:57;;;;;;;0.57;0.57;;;10.60;99.90;;;;;;4966348;28;20152;-82
2023/03/20 11:44:34;;;;;;;0.70;0.70;;;10.50;99.90;;;;;;4965996;28;20050;-82
2023/03/20 11:47:09;;;;;;;0.88;0.88;;;10.50;99.90;;;;;;5024133;28;20039;-82
2023/03/20 11:49:52;;;;;;;0.43;0.43;;;10.50;99.90;;;;;;4956678;28;20034;-81
2023/03/20 11:52:27;;;;;;;0.60;0.60;;;10.50;99.90;;;;;;4986488;28;20058;-82
2023/03/20 11:54:59;;;;;;;0.60;0.60;;;10.50;99.90;;;;;;4969709;28;20094;-81
2023/03/20 11:57:27;;;;;;;0.68;0.68;;;10.40;99.90;;;;;;4968389;28;20035;-82
2023/03/20 11:59:55;;;;;;;0.68;0.68;;;10.30;99.90;;;;;;4968826;28;20038;-81
2023/03/20 12:02:22;;;;;;;0.82;0.82;;;10.30;99.90;;;;;;4968089;28;20558;-81
2023/03/20 12:04:48;;;;;;;0.85;0.80;;;10.20;99.90;;;;;;4954673;28;20050;-81
2023/03/20 12:07:31;;;;;;;0.73;0.73;;;10.00;99.90;;;;;;4940155;28;20035;-80
2023/03/20 12:10:05;;;;;;;0.40;0.40;;;9.90;99.90;;;;;;4955230;28;20065;-81
2023/03/20 12:12:54;;;;;;;1.17;1.17;;;9.80;99.90;;;;;;4937166;28;20100;-81
2023/03/20 12:15:40;;;;;;;2.58;2.05;;;9.70;99.90;;;;;;4969851;28;20499;-81
2023/03/20 12:18:08;;;;;;;1.20;1.10;;;9.70;99.90;;;;;;4962757;28;20062;-81
2023/03/20 12:20:49;;;;;;;0.38;0.38;;;9.70;99.90;;;;;;4949951;28;20047;-82
2023/03/20 12:23:35;;;;;;;0.30;0.30;;;9.70;99.90;;;;;;4984470;28;20053;-82
2023/03/20 12:26:27;;;;;;;0.60;0.60;;;9.70;99.90;;;;;;4963618;28;20468;-81
2023/03/20 12:28:57;;;;;;;0.75;0.75;;;9.70;99.90;;;;;;4963938;28;20043;-82
2023/03/20 12:31:44;;;;;;;0.60;0.57;;;9.70;99.90;;;;;;4969829;28;20397;-81
2023/03/20 12:34:19;;;;;;;;;;;9.60;99.90;;;;;;4953726;28;20099;-80
2023/03/20 12:36:47;;;;;;;0.70;0.70;;;9.50;99.90;;;;;;4942886;28;19997;-82
2023/03/20 12:39:22;;;;;;;0.40;0.40;;;9.50;99.90;;;;;;4965982;28;20046;-81
2023/03/20 12:41:54;;;;;;;0.93;0.93;;;9.50;99.90;;;;;;4966104;28;20050;-82
2023/03/20 12:44:26;;;;;;;0.50;0.47;;;9.40;99.90;;;;;;4949859;28;20108;-81
2023/03/20 12:46:58;;;;;;;4.13;2.65;;;9.30;99.90;;;;;;4964298;28;20035;-81
2023/03/20 12:49:47;;;;;;;0.73;0.50;;;9.30;99.90;;;;;;4972897;28;20043;-82
2023/03/20 12:52:38;;;;;;;0.40;0.40;;;9.30;99.90;;;;;;4963100;28;20055;-81
2023/03/20 12:55:35;;;;;;;0.70;0.70;;;9.20;99.90;;;;;;4970290;28;20122;-81
2023/03/20 12:58:18;;;;;;;0.70;0.70;;;9.30;99.90;;;;;;4946722;28;20226;-82
2023/03/20 13:00:58;;;;;;;3.60;1.80;;;9.30;99.90;;;;;;4963983;28;20038;-81
2023/03/20 13:03:51;;;;;;;0.40;0.40;;;9.20;99.90;;;;;;4944861;28;20035;-81
2023/03/20 13:06:37;;;;;;;0.68;0.68;;;9.20;99.90;;;;;;4983004;28;20038;-81
2023/03/20 13:09:28;;;;;;;0.30;0.30;;;9.30;99.90;;;;;;4958992;28;20039;-80
2023/03/20 13:12:07;;;;;;;0.40;0.40;;;9.20;99.90;;;;;;4963451;28;20058;-81
2023/03/20 13:15:04;;;;;;;0.50;0.50;;;9.10;99.90;;;;;;4961878;28;20039;-81
2023/03/20 13:17:45;;;;;;;0.30;0.30;;;9.00;99.90;;;;;;4966830;28;20137;-82
2023/03/20 13:20:22;;;;;;;0.73;0.73;;;9.00;99.90;;;;;;4970830;28;20095;-81